Time;durP1;ratioP1;P1;durP2;ratioP2;P2;SDS_P1;SDS_P2;PMS_P1;PMS_P2;Temp;Humidity;BMP_temperature;BMP_pressure;BME280_temperature;BME280_humidity;BME280_pressure;Samples;Min_cycle;Max_cycle;Signal;HPM_P1;HPM_P2
2023/08/01 00:00:51;;;;;;;1.20;0.50;;;19.00;99.90;;;;;;5036930;28;20588;-78
2023/08/01 00:03:17;;;;;;;1.80;0.60;;;19.00;99.90;;;;;;5023225;28;20612;-76
2023/08/01 00:05:44;;;;;;;1.20;0.40;;;19.00;99.90;;;;;;5040631;28;20268;-78
2023/08/01 00:08:14;;;;;;;1.20;0.50;;;19.00;99.90;;;;;;5026307;28;20584;-78
2023/08/01 00:10:43;;;;;;;1.20;0.50;;;19.10;99.90;;;;;;5025672;28;20612;-78
2023/08/01 00:13:09;;;;;;;2.03;0.50;;;19.10;99.90;;;;;;5040455;28;21178;-78
2023/08/01 00:15:35;;;;;;;2.33;0.60;;;19.10;99.90;;;;;;5041252;28;20679;-78
2023/08/01 00:18:01;;;;;;;1.27;0.50;;;19.00;99.90;;;;;;5016856;28;20913;-75
2023/08/01 00:20:27;;;;;;;1.60;0.50;;;19.10;99.90;;;;;;5016820;28;20571;-77
2023/08/01 00:22:52;;;;;;;1.20;0.50;;;19.10;99.90;;;;;;5014879;28;20178;-74
2023/08/01 00:25:19;;;;;;;1.10;0.50;;;19.10;99.90;;;;;;5033393;28;20221;-76
2023/08/01 00:27:45;;;;;;;1.60;0.50;;;19.10;99.90;;;;;;5019571;28;20181;-76
2023/08/01 00:30:11;;;;;;;1.50;0.50;;;19.10;99.90;;;;;;5015237;28;20671;-75
2023/08/01 00:32:37;;;;;;;1.60;0.70;;;19.10;99.90;;;;;;5015644;28;20201;-76
2023/08/01 00:35:04;;;;;;;1.23;0.50;;;19.20;99.90;;;;;;5017089;28;20963;-76
2023/08/01 00:37:30;;;;;;;1.30;0.50;;;19.20;99.90;;;;;;5017323;28;20580;-76
2023/08/01 00:39:56;;;;;;;1.87;0.50;;;19.20;99.90;;;;;;5035748;28;20560;-76
2023/08/01 00:42:22;;;;;;;1.40;0.50;;;19.10;99.90;;;;;;5016579;28;21258;-76
2023/08/01 00:44:48;;;;;;;1.30;0.50;;;19.10;99.90;;;;;;5017067;28;20681;-76
2023/08/01 00:47:15;;;;;;;1.53;0.50;;;19.10;99.90;;;;;;5016523;28;20190;-75
2023/08/01 00:49:41;;;;;;;1.33;0.50;;;19.20;99.90;;;;;;5014516;28;20595;-75
2023/08/01 00:52:08;;;;;;;1.23;0.50;;;19.20;99.90;;;;;;5032138;28;20619;-75
2023/08/01 00:54:36;;;;;;;2.20;0.50;;;19.20;99.90;;;;;;5013986;28;20704;-76
2023/08/01 00:57:05;;;;;;;1.10;0.40;;;19.20;99.90;;;;;;5032653;28;20567;-75
2023/08/01 00:59:31;;;;;;;1.63;0.50;;;19.20;99.90;;;;;;5032592;28;20584;-76
2023/08/01 01:01:58;;;;;;;1.60;0.60;;;19.20;99.90;;;;;;4982537;28;20591;-75
2023/08/01 01:04:24;;;;;;;1.10;0.40;;;19.10;99.90;;;;;;5019575;28;20616;-76
2023/08/01 01:06:59;;;;;;;1.10;0.40;;;19.10;99.90;;;;;;5015616;28;20599;-76
2023/08/01 01:09:29;;;;;;;2.80;0.40;;;19.10;99.90;;;;;;5015002;28;20181;-76
2023/08/01 01:11:54;;;;;;;1.60;0.50;;;19.10;99.90;;;;;;5015499;28;20624;-77
2023/08/01 01:14:20;;;;;;;1.50;0.50;;;19.10;99.90;;;;;;5007892;28;20686;-76
2023/08/01 01:17:04;;;;;;;1.20;0.50;;;19.10;99.90;;;;;;5017269;28;20184;-75
2023/08/01 01:19:30;;;;;;;1.20;0.40;;;19.10;99.90;;;;;;5014623;28;20634;-76
2023/08/01 01:21:57;;;;;;;1.40;0.60;;;19.10;99.90;;;;;;5014686;28;20576;-77
2023/08/01 01:24:24;;;;;;;1.10;0.43;;;19.10;99.90;;;;;;5015173;28;20280;-77
2023/08/01 01:26:51;;;;;;;1.20;0.43;;;19.10;99.90;;;;;;5015598;28;20641;-76
2023/08/01 01:29:18;;;;;;;1.73;0.40;;;19.20;99.90;;;;;;5014628;28;20580;-75
2023/08/01 01:31:45;;;;;;;1.30;0.40;;;19.20;99.90;;;;;;5014183;28;20635;-75
2023/08/01 01:34:12;;;;;;;1.50;0.40;;;19.20;99.90;;;;;;5013657;28;20604;-76
2023/08/01 01:36:38;;;;;;;1.00;0.40;;;19.20;99.90;;;;;;4981516;28;20585;-75
2023/08/01 01:39:05;;;;;;;1.30;0.40;;;19.20;99.90;;;;;;5014891;28;20596;-76
2023/08/01 01:41:31;;;;;;;1.20;0.50;;;19.20;99.90;;;;;;5014590;28;20581;-76
2023/08/01 01:43:56;;;;;;;1.10;0.30;;;19.20;99.90;;;;;;5017637;28;20711;-76
2023/08/01 01:46:22;;;;;;;1.20;0.40;;;19.20;99.90;;;;;;5016150;28;20177;-77
2023/08/01 01:48:48;;;;;;;1.10;0.40;;;19.20;99.90;;;;;;5018440;28;20177;-77
2023/08/01 01:51:13;;;;;;;1.30;0.40;;;19.20;99.90;;;;;;5001167;28;20567;-77
2023/08/01 01:53:39;;;;;;;1.40;0.40;;;19.20;99.90;;;;;;5017342;28;20212;-76
2023/08/01 01:56:06;;;;;;;1.17;0.40;;;19.20;99.90;;;;;;5019090;28;20209;-76
2023/08/01 01:58:32;;;;;;;1.73;0.40;;;19.20;99.90;;;;;;5019420;28;20588;-76
2023/08/01 02:00:57;;;;;;;1.40;0.40;;;19.20;99.90;;;;;;5019552;28;20180;-77
2023/08/01 02:03:23;;;;;;;1.10;0.40;;;19.20;99.90;;;;;;5018805;28;20193;-76
2023/08/01 02:05:49;;;;;;;1.23;0.43;;;19.20;99.90;;;;;;5008916;28;20618;-76
2023/08/01 02:08:15;;;;;;;2.60;0.60;;;19.20;99.90;;;;;;5037831;28;20177;-76
2023/08/01 02:10:40;;;;;;;1.47;0.50;;;19.20;99.90;;;;;;5036907;28;20611;-76
2023/08/01 02:13:08;;;;;;;1.53;0.53;;;19.20;99.90;;;;;;5037699;28;20213;-77
2023/08/01 02:15:34;;;;;;;1.27;0.50;;;19.20;99.90;;;;;;5040360;28;20188;-78
2023/08/01 02:17:59;;;;;;;1.20;0.40;;;19.20;99.90;;;;;;5045980;28;20959;-77
2023/08/01 02:20:26;;;;;;;1.20;0.50;;;19.20;99.90;;;;;;5048349;28;20170;-78
2023/08/01 02:22:52;;;;;;;1.10;0.40;;;19.10;99.90;;;;;;5048978;28;20220;-78
2023/08/01 02:25:18;;;;;;;1.10;0.40;;;19.10;99.90;;;;;;5048042;28;20585;-78
2023/08/01 02:27:43;;;;;;;2.47;0.50;;;19.00;99.90;;;;;;5040804;28;20174;-77
2023/08/01 02:30:10;;;;;;;1.20;0.50;;;18.90;99.90;;;;;;5036803;28;20196;-76
2023/08/01 02:32:35;;;;;;;1.10;0.40;;;18.90;99.90;;;;;;5035157;28;20232;-76
2023/08/01 02:35:01;;;;;;;1.10;0.50;;;18.80;99.90;;;;;;5018173;28;21196;-76
2023/08/01 02:37:27;;;;;;;1.20;0.43;;;18.80;99.90;;;;;;5036471;28;20169;-76
2023/08/01 02:39:52;;;;;;;1.20;0.47;;;18.70;99.90;;;;;;5040948;28;20177;-77
2023/08/01 02:42:18;;;;;;;1.20;0.47;;;18.70;99.90;;;;;;5043731;28;20182;-77
2023/08/01 02:44:43;;;;;;;1.63;0.50;;;18.70;99.90;;;;;;5043176;28;20217;-76
2023/08/01 02:47:09;;;;;;;1.20;0.50;;;18.70;99.90;;;;;;5043875;28;20245;-76
2023/08/01 02:49:35;;;;;;;1.40;0.50;;;18.70;99.90;;;;;;5011168;28;20181;-76
2023/08/01 02:52:00;;;;;;;1.50;0.60;;;18.60;99.90;;;;;;5042449;28;20209;-77
2023/08/01 02:54:26;;;;;;;1.53;0.60;;;18.60;99.90;;;;;;5041376;28;20192;-76
2023/08/01 02:56:52;;;;;;;1.60;0.60;;;18.60;99.90;;;;;;5042406;28;20576;-76
2023/08/01 02:59:18;;;;;;;1.80;0.60;;;18.60;99.90;;;;;;5045630;28;20308;-77
2023/08/01 03:01:44;;;;;;;1.60;0.67;;;18.60;99.90;;;;;;5046240;28;20205;-77
2023/08/01 03:04:11;;;;;;;1.50;0.60;;;18.60;99.90;;;;;;5046178;28;20197;-77
2023/08/01 03:06:37;;;;;;;1.30;0.60;;;18.60;99.90;;;;;;5044007;28;20691;-77
2023/08/01 03:09:07;;;;;;;2.60;0.70;;;18.60;99.90;;;;;;5048882;28;20632;-78
2023/08/01 03:11:39;;;;;;;2.23;0.60;;;18.60;99.90;;;;;;5046574;28;20628;-77
2023/08/01 03:14:05;;;;;;;1.30;0.67;;;18.60;99.90;;;;;;5043888;28;20683;-77
2023/08/01 03:16:31;;;;;;;1.30;0.60;;;18.50;99.90;;;;;;5027350;28;20568;-76
2023/08/01 03:18:57;;;;;;;1.60;0.70;;;18.50;99.90;;;;;;5035921;28;20181;-75
2023/08/01 03:21:23;;;;;;;2.63;0.67;;;18.50;99.90;;;;;;5036129;28;20588;-76
2023/08/01 03:23:49;;;;;;;1.63;0.73;;;18.50;99.90;;;;;;5049525;28;20620;-77
2023/08/01 03:26:16;;;;;;;2.23;0.67;;;18.50;99.90;;;;;;5048819;28;20182;-75
2023/08/01 03:28:41;;;;;;;1.80;0.70;;;18.50;99.90;;;;;;5042189;28;20184;-76
2023/08/01 03:31:07;;;;;;;2.30;0.80;;;18.50;99.90;;;;;;5043094;28;20594;-76
2023/08/01 03:33:33;;;;;;;1.70;0.70;;;18.50;99.90;;;;;;5056401;28;20208;-75
2023/08/01 03:35:59;;;;;;;1.50;0.67;;;18.50;99.90;;;;;;5038566;28;20184;-76
2023/08/01 03:38:25;;;;;;;1.50;0.70;;;18.50;99.90;;;;;;5044021;28;20583;-77
2023/08/01 03:40:51;;;;;;;1.60;0.70;;;18.50;99.90;;;;;;5051465;28;20181;-77
2023/08/01 03:43:16;;;;;;;2.13;0.90;;;18.50;99.90;;;;;;5050983;28;20200;-77
2023/08/01 03:45:42;;;;;;;1.80;1.10;;;18.50;99.90;;;;;;5053456;28;20181;-77
2023/08/01 03:48:08;;;;;;;2.33;1.20;;;18.50;99.90;;;;;;5056026;28;20169;-77
2023/08/01 03:50:33;;;;;;;1.90;1.17;;;18.40;99.90;;;;;;5057110;28;20184;-77
2023/08/01 03:52:59;;;;;;;2.70;1.20;;;18.40;99.90;;;;;;5040195;28;20200;-77
2023/08/01 03:55:25;;;;;;;2.53;1.47;;;18.40;99.90;;;;;;5054534;28;20173;-76
2023/08/01 03:57:50;;;;;;;2.23;1.53;;;18.40;99.90;;;;;;5049050;28;20165;-76
2023/08/01 04:00:18;;;;;;;2.60;2.20;;;18.30;99.90;;;;;;5049451;28;20169;-76
2023/08/01 04:02:44;;;;;;;3.23;1.83;;;18.30;99.90;;;;;;5066265;28;20165;-76
2023/08/01 04:05:10;;;;;;;2.53;1.70;;;18.30;99.90;;;;;;5055069;28;20627;-77
2023/08/01 04:07:37;;;;;;;2.63;1.90;;;18.30;99.90;;;;;;5054322;28;20705;-76
2023/08/01 04:10:04;;;;;;;4.67;2.30;;;18.30;99.90;;;;;;5032849;28;20176;-76
2023/08/01 04:12:33;;;;;;;5.13;2.57;;;18.30;99.90;;;;;;5048135;28;20686;-77
2023/08/01 04:15:00;;;;;;;4.40;2.70;;;18.30;99.90;;;;;;5046872;28;20600;-76
2023/08/01 04:17:26;;;;;;;3.70;2.50;;;18.30;99.90;;;;;;5047537;28;20576;-77
2023/08/01 04:19:52;;;;;;;3.27;2.97;;;18.20;99.90;;;;;;5049878;28;20575;-76
2023/08/01 04:22:18;;;;;;;4.83;3.67;;;18.20;99.90;;;;;;5067929;28;20578;-77
2023/08/01 04:24:47;;;;;;;3.60;2.60;;;18.20;99.90;;;;;;5066564;28;20619;-76
2023/08/01 04:27:13;;;;;;;4.10;3.20;;;18.20;99.90;;;;;;5046696;28;20752;-76
2023/08/01 04:29:38;;;;;;;5.80;2.93;;;18.20;99.90;;;;;;5066355;28;20579;-77
2023/08/01 04:32:04;;;;;;;3.23;2.70;;;18.20;99.90;;;;;;5047473;28;20889;-76
2023/08/01 04:34:30;;;;;;;4.70;3.07;;;18.20;99.90;;;;;;5046206;28;20209;-76
2023/08/01 04:36:56;;;;;;;4.93;3.20;;;18.20;99.90;;;;;;5047257;28;20571;-76
2023/08/01 04:39:21;;;;;;;6.00;3.27;;;18.20;99.90;;;;;;5066258;28;20209;-76
2023/08/01 04:41:49;;;;;;;3.77;3.13;;;18.20;99.90;;;;;;5050966;28;20517;-76
2023/08/01 04:44:15;;;;;;;7.93;2.97;;;18.20;99.90;;;;;;5051771;28;20292;-76
2023/08/01 04:46:41;;;;;;;3.50;2.70;;;18.20;99.90;;;;;;5047690;28;20579;-76
2023/08/01 04:49:07;;;;;;;7.00;2.97;;;18.20;99.90;;;;;;5052095;28;20977;-77
2023/08/01 04:51:33;;;;;;;9.03;3.50;;;18.20;99.90;;;;;;5054595;28;20603;-77
2023/08/01 04:53:59;;;;;;;5.63;3.13;;;18.20;99.90;;;;;;5054675;28;20193;-77
2023/08/01 04:56:24;;;;;;;4.93;3.80;;;18.20;99.90;;;;;;5033012;28;20192;-77
2023/08/01 04:58:50;;;;;;;6.93;3.43;;;18.20;99.90;;;;;;5050437;28;20177;-77
2023/08/01 05:01:16;;;;;;;6.50;3.37;;;18.20;99.90;;;;;;5056612;28;20180;-77
2023/08/01 05:03:41;;;;;;;5.50;3.43;;;18.20;99.90;;;;;;5067464;28;20223;-76
2023/08/01 05:06:07;;;;;;;7.27;3.07;;;18.20;99.90;;;;;;5049394;28;20706;-75
2023/08/01 05:08:33;;;;;;;4.17;3.47;;;18.20;99.90;;;;;;5066516;28;20169;-76
2023/08/01 05:10:58;;;;;;;4.30;3.07;;;18.20;99.90;;;;;;5044565;28;20203;-76
2023/08/01 05:13:24;;;;;;;5.23;3.60;;;18.20;99.90;;;;;;5044127;28;20617;-76
2023/08/01 05:15:51;;;;;;;4.87;2.97;;;18.20;99.90;;;;;;5047600;28;20183;-76
2023/08/01 05:18:17;;;;;;;5.93;3.60;;;18.30;99.90;;;;;;5047423;28;20595;-76
2023/08/01 05:20:43;;;;;;;4.47;3.37;;;18.30;99.90;;;;;;5052396;28;20165;-76
2023/08/01 05:23:09;;;;;;;5.00;3.03;;;18.30;99.90;;;;;;5043865;28;20595;-76
2023/08/01 05:25:35;;;;;;;5.37;3.20;;;18.30;99.90;;;;;;5061094;28;20610;-76
2023/08/01 05:28:00;;;;;;;4.87;3.03;;;18.30;99.90;;;;;;5058271;28;20177;-76
2023/08/01 05:30:26;;;;;;;7.50;3.30;;;18.40;99.90;;;;;;5039458;28;20633;-75
2023/08/01 05:32:53;;;;;;;5.13;2.83;;;18.40;99.90;;;;;;5041233;28;20748;-76
2023/08/01 05:35:20;;;;;;;5.47;3.53;;;18.40;99.90;;;;;;5062406;28;20166;-76
2023/08/01 05:37:45;;;;;;;7.10;3.43;;;18.40;99.90;;;;;;5044972;28;20607;-75
2023/08/01 05:40:11;;;;;;;5.30;3.60;;;18.40;99.90;;;;;;5041088;28;20590;-74
2023/08/01 05:42:37;;;;;;;7.10;3.03;;;18.50;99.90;;;;;;5042031;28;20173;-75
2023/08/01 05:45:04;;;;;;;3.27;2.17;;;18.50;99.90;;;;;;5043039;28;20994;-75
2023/08/01 05:47:30;;;;;;;5.83;2.50;;;18.50;99.90;;;;;;5045258;28;20239;-75
2023/08/01 05:49:56;;;;;;;3.60;2.63;;;18.50;99.90;;;;;;5043949;28;20588;-75
2023/08/01 05:52:22;;;;;;;3.70;2.13;;;18.60;99.90;;;;;;5026784;28;20675;-75
2023/08/01 05:54:48;;;;;;;3.03;2.30;;;18.60;99.90;;;;;;5042397;28;20611;-75
2023/08/01 05:57:14;;;;;;;4.70;3.10;;;18.60;99.90;;;;;;5042234;28;20572;-75
2023/08/01 05:59:40;;;;;;;5.50;2.83;;;18.60;99.90;;;;;;5032588;28;20724;-74
2023/08/01 06:02:06;;;;;;;4.63;2.80;;;18.60;99.90;;;;;;5031255;28;20184;-76
2023/08/01 06:04:32;;;;;;;3.57;2.23;;;18.70;99.90;;;;;;5012694;28;20613;-75
2023/08/01 06:06:58;;;;;;;4.00;2.53;;;18.80;99.90;;;;;;5012631;28;20607;-76
2023/08/01 06:09:24;;;;;;;3.97;2.40;;;18.80;99.90;;;;;;5013365;28;20601;-75
2023/08/01 06:11:51;;;;;;;5.80;2.70;;;18.90;99.90;;;;;;4996614;28;20624;-75
2023/08/01 06:14:17;;;;;;;4.60;3.10;;;18.90;99.90;;;;;;5025760;28;20630;-76
2023/08/01 06:16:43;;;;;;;4.07;2.67;;;19.00;99.90;;;;;;5041181;28;20576;-79
2023/08/01 06:19:09;;;;;;;6.27;2.60;;;19.00;99.90;;;;;;5047448;28;20586;-78
2023/08/01 06:21:35;;;;;;;6.10;3.00;;;19.10;99.90;;;;;;5050819;28;20293;-75
2023/08/01 06:24:01;;;;;;;3.90;2.70;;;19.10;99.90;;;;;;5016249;28;21037;-75
2023/08/01 06:26:27;;;;;;;5.03;2.80;;;19.20;99.90;;;;;;5000882;28;20186;-75
2023/08/01 06:28:53;;;;;;;3.70;2.57;;;19.30;99.90;;;;;;4996658;28;20593;-75
2023/08/01 06:31:21;;;;;;;6.73;2.50;;;19.30;99.90;;;;;;5015661;28;21338;-75
2023/08/01 06:33:49;;;;;;;4.83;3.00;;;19.40;99.90;;;;;;5018605;28;20189;-76
2023/08/01 06:36:17;;;;;;;11.07;2.80;;;19.50;99.90;;;;;;5050759;28;20580;-75
2023/08/01 06:38:43;;;;;;;3.90;2.23;;;19.60;99.90;;;;;;5046991;28;20663;-75
2023/08/01 06:41:09;;;;;;;4.70;3.00;;;19.70;99.90;;;;;;5049813;28;20626;-75
2023/08/01 06:43:37;;;;;;;4.33;3.40;;;19.80;99.90;;;;;;5015858;28;20626;-74
2023/08/01 06:46:03;;;;;;;6.13;2.53;;;20.00;99.90;;;;;;5031274;28;20579;-74
2023/08/01 06:48:29;;;;;;;5.23;2.57;;;20.10;99.90;;;;;;5050194;28;20573;-74
2023/08/01 06:50:54;;;;;;;5.20;2.90;;;20.10;99.90;;;;;;5032596;28;21297;-77
2023/08/01 06:53:21;;;;;;;7.30;3.00;;;20.30;99.90;;;;;;5054963;28;20200;-76
2023/08/01 06:55:49;;;;;;;3.77;2.23;;;20.60;99.90;;;;;;5032219;28;20208;-78
2023/08/01 06:58:18;;;;;;;3.90;2.97;;;20.90;99.90;;;;;;5036964;28;20948;-79
2023/08/01 07:00:44;;;;;;;6.37;2.70;;;21.70;99.90;;;;;;5021231;28;20595;-78
2023/08/01 07:03:10;;;;;;;3.77;2.50;;;22.20;99.90;;;;;;5053219;28;20595;-79
2023/08/01 07:05:35;;;;;;;4.00;2.20;;;22.50;99.90;;;;;;5036165;28;20593;-79
2023/08/01 07:08:01;;;;;;;5.73;2.47;;;22.50;99.90;;;;;;5034821;28;20248;-78
2023/08/01 07:10:27;;;;;;;4.00;2.30;;;22.50;99.90;;;;;;5048747;28;20177;-78
2023/08/01 07:12:52;;;;;;;4.23;2.47;;;22.40;99.90;;;;;;5029768;28;20212;-76
2023/08/01 07:15:18;;;;;;;3.30;2.73;;;22.30;99.90;;;;;;5035382;28;20207;-77
2023/08/01 07:17:44;;;;;;;6.23;3.30;;;22.20;99.90;;;;;;5068463;28;20177;-78
2023/08/01 07:20:10;;;;;;;7.20;3.23;;;22.10;99.90;;;;;;5050246;28;20184;-78
2023/08/01 07:22:35;;;;;;;5.27;3.17;;;22.00;99.90;;;;;;5042630;28;20225;-77
2023/08/01 07:25:01;;;;;;;6.27;3.00;;;21.80;99.90;;;;;;5047946;28;21191;-78
2023/08/01 07:27:27;;;;;;;5.50;2.70;;;21.70;99.90;;;;;;5051291;28;20549;-79
2023/08/01 07:29:52;;;;;;;4.97;2.63;;;21.80;99.90;;;;;;5048453;28;20281;-78
2023/08/01 07:32:18;;;;;;;4.53;2.87;;;22.20;99.90;;;;;;5050907;28;20253;-77
2023/08/01 07:34:44;;;;;;;5.00;2.47;;;22.80;99.90;;;;;;5053089;28;20189;-77
2023/08/01 07:37:09;;;;;;;2.90;1.93;;;23.60;99.90;;;;;;5026091;28;20185;-77
2023/08/01 07:39:35;;;;;;;5.30;2.30;;;24.40;99.90;;;;;;5023529;28;20182;-77
2023/08/01 07:42:01;;;;;;;3.30;2.17;;;25.40;99.90;;;;;;4995513;28;20194;-75
2023/08/01 07:44:27;;;;;;;4.70;2.20;;;26.40;99.90;;;;;;5020257;28;20283;-74
2023/08/01 07:46:54;;;;;;;4.60;2.40;;;27.30;99.90;;;;;;5008250;28;20178;-74
2023/08/01 07:49:23;;;;;;;5.97;3.73;;;28.00;99.90;;;;;;5020795;28;20196;-75
2023/08/01 07:52:07;;;;;;;5.67;4.00;;;28.80;99.90;;;;;;4999420;28;20638;-75
2023/08/01 07:54:58;;;;;;;4.80;2.57;;;29.60;99.90;;;;;;5019174;28;21173;-75
2023/08/01 07:57:24;;;;;;;3.40;2.43;;;30.20;99.90;;;;;;5017986;28;20937;-76
2023/08/01 07:59:52;;;;;;;3.93;2.10;;;30.50;99.90;;;;;;5027171;28;20606;-77
2023/08/01 08:02:17;;;;;;;3.73;2.57;;;30.90;99.90;;;;;;5025278;28;20346;-76
2023/08/01 08:04:43;;;;;;;3.60;1.70;;;31.30;99.90;;;;;;5022512;28;21042;-76
2023/08/01 08:07:09;;;;;;;2.90;2.17;;;31.30;99.90;;;;;;5008863;28;20191;-75
2023/08/01 08:09:34;;;;;;;6.57;1.83;;;31.30;99.90;;;;;;5006654;28;20190;-76
2023/08/01 08:12:00;;;;;;;3.40;2.47;;;31.10;99.90;;;;;;5032497;28;20532;-79
2023/08/01 08:14:26;;;;;;;5.53;2.40;;;30.80;99.90;;;;;;5027010;28;20201;-78
2023/08/01 08:16:52;;;;;;;3.50;2.60;;;30.40;99.90;;;;;;5027982;28;20695;-78
2023/08/01 08:19:19;;;;;;;3.03;1.70;;;30.10;99.90;;;;;;5012186;28;20549;-79
2023/08/01 08:21:45;;;;;;;3.33;2.13;;;29.90;99.90;;;;;;5029585;28;20252;-78
2023/08/01 08:24:11;;;;;;;3.70;2.00;;;30.10;99.90;;;;;;5018902;28;20973;-79
2023/08/01 08:26:39;;;;;;;4.80;1.90;;;30.20;99.90;;;;;;5022667;28;20645;-78
2023/08/01 08:29:04;;;;;;;4.17;2.53;;;30.20;99.90;;;;;;5014016;28;20189;-79
2023/08/01 08:31:31;;;;;;;3.30;2.03;;;30.20;99.90;;;;;;5023621;28;21287;-77
2023/08/01 08:33:56;;;;;;;5.63;2.13;;;30.10;99.90;;;;;;5004011;28;20206;-78
2023/08/01 08:36:25;;;;;;;3.43;1.87;;;29.90;99.90;;;;;;5006206;28;20615;-79
2023/08/01 08:38:51;;;;;;;6.63;2.10;;;30.00;99.90;;;;;;5027602;28;20171;-78
2023/08/01 08:45:06;;;;;;;3.20;1.57;;;30.70;99.90;;;;;;5028250;28;20209;-78
2023/08/01 08:47:36;;;;;;;3.93;1.83;;;31.30;99.90;;;;;;5013337;28;20589;-76
2023/08/01 08:50:02;;;;;;;3.77;2.47;;;31.80;99.90;;;;;;5025985;28;20695;-77
2023/08/01 08:52:28;;;;;;;3.40;1.93;;;32.30;99.90;;;;;;5002771;28;21270;-77
2023/08/01 08:54:56;;;;;;;3.27;1.50;;;32.50;99.90;;;;;;5035231;28;20207;-77
2023/08/01 08:57:23;;;;;;;2.87;1.40;;;32.50;99.90;;;;;;5012627;28;20621;-77
2023/08/01 08:59:49;;;;;;;4.50;1.80;;;32.10;99.90;;;;;;5018741;28;20656;-77
2023/08/01 09:02:16;;;;;;;5.50;1.80;;;31.60;99.90;;;;;;5028165;28;20592;-77
2023/08/01 09:04:42;;;;;;;5.03;1.60;;;31.20;99.90;;;;;;5011822;28;20678;-77
2023/08/01 09:07:12;;;;;;;4.47;2.03;;;30.80;99.90;;;;;;5004708;28;20606;-78
2023/08/01 09:09:38;;;;;;;3.17;1.60;;;30.60;99.90;;;;;;5016769;28;20196;-77
2023/08/01 09:12:04;;;;;;;3.50;1.40;;;30.40;99.90;;;;;;5029733;28;20982;-77
2023/08/01 09:14:32;;;;;;;2.83;1.70;;;30.50;99.90;;;;;;4996327;28;20203;-76
2023/08/01 09:17:09;;;;;;;2.67;1.60;;;30.90;99.90;;;;;;5004905;28;20608;-77
2023/08/01 09:19:35;;;;;;;3.53;1.60;;;31.30;99.90;;;;;;5027037;28;20620;-77
2023/08/01 09:22:02;;;;;;;4.57;1.17;;;31.80;99.90;;;;;;5007395;28;20623;-77
2023/08/01 09:24:28;;;;;;;2.40;1.03;;;32.20;99.90;;;;;;5009611;28;20275;-77
2023/08/01 09:27:03;;;;;;;3.20;1.47;;;32.60;99.90;;;;;;5008175;28;21410;-78
2023/08/01 09:29:31;;;;;;;2.70;1.30;;;32.80;98.80;;;;;;5003318;28;20529;-77
2023/08/01 09:31:57;;;;;;;2.37;1.23;;;32.90;98.20;;;;;;5014498;28;20642;-77
2023/08/01 09:34:25;;;;;;;4.43;1.53;;;32.60;96.70;;;;;;5016459;28;20678;-77
2023/08/01 09:36:57;;;;;;;3.33;1.60;;;32.10;95.30;;;;;;5009885;28;20180;-76
2023/08/01 09:39:23;;;;;;;3.70;1.37;;;31.50;94.30;;;;;;5010935;28;20609;-76
2023/08/01 09:41:56;;;;;;;3.07;1.60;;;31.10;95.10;;;;;;5021902;28;20622;-76
2023/08/01 09:44:22;;;;;;;2.90;1.47;;;31.10;95.10;;;;;;5005109;28;20820;-76
2023/08/01 09:47:01;;;;;;;2.77;1.30;;;30.90;96.40;;;;;;4975498;28;20688;-77
2023/08/01 09:49:28;;;;;;;3.83;1.63;;;31.10;94.90;;;;;;5000822;28;20204;-76
2023/08/01 09:51:54;;;;;;;2.80;1.47;;;31.30;97.50;;;;;;5021724;28;20644;-77
2023/08/01 09:54:21;;;;;;;7.20;1.93;;;31.60;97.50;;;;;;5005602;28;20631;-76
2023/08/01 09:56:50;;;;;;;3.53;1.33;;;31.90;97.90;;;;;;5009135;28;21177;-77
2023/08/01 09:59:20;;;;;;;2.50;1.00;;;32.10;96.40;;;;;;4996515;28;20620;-77
2023/08/01 10:01:51;;;;;;;3.70;1.20;;;32.20;93.90;;;;;;5011882;28;20619;-77
2023/08/01 10:04:37;;;;;;;2.40;1.10;;;32.00;93.50;;;;;;5019045;28;20642;-76
2023/08/01 10:07:08;;;;;;;2.80;1.33;;;31.90;92.40;;;;;;5014716;28;20610;-78
2023/08/01 10:09:35;;;;;;;2.60;1.10;;;31.80;91.80;;;;;;5021886;28;20599;-77
2023/08/01 10:12:02;;;;;;;2.30;1.20;;;31.60;92.80;;;;;;5020678;28;21087;-77
2023/08/01 10:14:29;;;;;;;3.07;1.40;;;31.50;92.50;;;;;;5017100;28;20699;-78
2023/08/01 10:16:56;;;;;;;5.60;1.50;;;31.30;92.50;;;;;;5016585;28;20593;-77
2023/08/01 10:19:22;;;;;;;2.53;1.30;;;31.10;92.00;;;;;;5001402;28;20620;-78
2023/08/01 10:21:49;;;;;;;2.70;1.53;;;30.90;91.90;;;;;;5010290;28;20642;-77
2023/08/01 10:24:16;;;;;;;2.80;1.30;;;30.70;91.60;;;;;;4982318;28;20210;-77
2023/08/01 10:26:46;;;;;;;2.73;1.37;;;30.40;91.30;;;;;;5012352;28;20606;-76
2023/08/01 10:29:11;;;;;;;2.60;1.20;;;30.20;91.00;;;;;;5008233;28;20609;-76
2023/08/01 10:31:37;;;;;;;2.30;1.50;;;30.00;91.90;;;;;;5026920;28;20640;-77
2023/08/01 10:34:12;;;;;;;3.30;1.43;;;30.10;92.60;;;;;;5018626;28;20221;-76
2023/08/01 10:36:38;;;;;;;3.40;1.67;;;30.20;92.70;;;;;;5004580;28;20643;-76
2023/08/01 10:39:04;;;;;;;2.30;1.10;;;30.40;94.00;;;;;;5004393;28;20634;-76
2023/08/01 10:41:32;;;;;;;3.80;1.70;;;30.50;93.10;;;;;;5012715;28;20619;-76
2023/08/01 10:44:14;;;;;;;5.67;1.50;;;30.70;92.70;;;;;;5021494;28;20219;-78
2023/08/01 10:47:01;;;;;;;3.20;1.40;;;31.10;92.70;;;;;;4999607;28;20614;-78
2023/08/01 10:49:37;;;;;;;5.30;1.53;;;31.50;92.90;;;;;;5023628;28;20630;-78
2023/08/01 10:52:16;;;;;;;3.30;1.20;;;31.90;92.10;;;;;;5036857;28;20645;-78
2023/08/01 10:54:42;;;;;;;2.63;1.30;;;32.20;92.10;;;;;;5004621;28;20688;-78
2023/08/01 10:57:08;;;;;;;4.93;1.33;;;32.40;92.00;;;;;;5013885;28;20603;-77
2023/08/01 10:59:34;;;;;;;2.67;1.40;;;32.50;91.00;;;;;;5026728;28;20212;-77
2023/08/01 11:02:01;;;;;;;3.43;1.43;;;32.60;90.00;;;;;;5009029;28;20704;-77
2023/08/01 11:04:27;;;;;;;2.40;1.30;;;32.60;89.30;;;;;;5029699;23;20627;-82
2023/08/01 11:06:56;;;;;;;2.73;1.30;;;32.50;87.60;;;;;;5031883;28;20770;-81
2023/08/01 11:09:23;;;;;;;2.87;1.70;;;32.50;85.70;;;;;;5037279;28;20861;-82
2023/08/01 11:11:55;;;;;;;2.37;1.20;;;32.50;85.30;;;;;;5053259;28;20689;-81
2023/08/01 11:14:22;;;;;;;2.77;1.70;;;32.40;83.40;;;;;;5028078;28;20616;-82
2023/08/01 11:16:49;;;;;;;2.97;1.77;;;32.20;81.90;;;;;;4997561;28;20607;-82
2023/08/01 11:19:20;;;;;;;2.57;1.10;;;32.20;83.60;;;;;;5026173;28;21213;-82
2023/08/01 11:21:48;;;;;;;3.07;1.07;;;32.30;83.50;;;;;;5048695;28;20602;-83
2023/08/01 11:24:13;;;;;;;2.70;0.90;;;32.40;83.70;;;;;;5047019;28;20599;-81
2023/08/01 11:26:47;;;;;;;2.97;1.03;;;32.50;82.90;;;;;;5026472;28;20975;-82
2023/08/01 11:29:14;;;;;;;3.10;1.00;;;32.50;80.10;;;;;;5037324;28;20272;-82
2023/08/01 11:31:51;;;;;;;3.47;1.07;;;32.30;77.30;;;;;;5013907;28;20648;-81
2023/08/01 11:34:18;;;;;;;5.77;1.20;;;32.00;77.30;;;;;;5044716;28;20622;-81
2023/08/01 11:36:45;;;;;;;4.83;1.10;;;31.70;77.10;;;;;;5029850;28;20973;-82
2023/08/01 11:39:12;;;;;;;2.20;1.00;;;31.50;77.40;;;;;;5033979;28;20700;-83
2023/08/01 11:41:38;;;;;;;2.30;0.93;;;31.20;74.60;;;;;;5026123;28;20633;-81
2023/08/01 11:44:25;;;;;;;3.53;1.30;;;31.00;75.70;;;;;;5035932;28;20684;-81
2023/08/01 11:46:51;;;;;;;2.80;1.50;;;30.80;75.50;;;;;;5025116;28;20624;-82
2023/08/01 11:49:17;;;;;;;2.60;1.47;;;30.80;78.00;;;;;;5044109;28;20597;-81
2023/08/01 11:51:44;;;;;;;3.50;1.30;;;30.80;77.30;;;;;;5027930;28;20633;-82
2023/08/01 11:54:12;;;;;;;3.73;1.20;;;30.60;76.70;;;;;;5011961;28;20186;-81
2023/08/01 11:56:39;;;;;;;3.47;1.07;;;30.30;75.70;;;;;;5009815;28;20618;-80
2023/08/01 11:59:16;;;;;;;4.43;0.90;;;30.00;75.50;;;;;;5006791;28;20608;-79
2023/08/01 12:01:44;;;;;;;3.50;1.27;;;29.60;74.80;;;;;;5034312;28;20616;-79
2023/08/01 12:04:10;;;;;;;3.10;1.50;;;29.20;75.30;;;;;;5048131;28;20625;-79
2023/08/01 12:06:38;;;;;;;4.73;2.47;;;28.80;74.80;;;;;;5026262;28;21133;-79
2023/08/01 12:09:12;;;;;;;6.50;2.80;;;28.50;76.30;;;;;;5032060;28;20611;-79
2023/08/01 12:11:40;;;;;;;4.13;1.70;;;28.30;78.90;;;;;;5016522;28;20798;-79
2023/08/01 12:14:15;;;;;;;15.37;2.83;;;28.40;81.90;;;;;;5026846;28;20603;-78
2023/08/01 12:16:45;;;;;;;4.13;1.60;;;28.40;82.80;;;;;;5035614;28;20685;-80
2023/08/01 12:19:16;;;;;;;3.60;1.53;;;28.70;85.50;;;;;;5047390;28;20683;-79
2023/08/01 12:21:42;;;;;;;3.10;1.20;;;28.90;84.80;;;;;;5038137;28;20596;-80
2023/08/01 12:24:08;;;;;;;3.20;1.00;;;29.20;85.10;;;;;;5033912;28;20599;-79
2023/08/01 12:26:34;;;;;;;2.53;0.90;;;29.30;84.00;;;;;;5037236;28;20292;-79
2023/08/01 12:28:59;;;;;;;3.27;1.20;;;29.30;82.20;;;;;;5015105;28;20271;-79
2023/08/01 12:31:25;;;;;;;2.50;1.00;;;29.30;80.00;;;;;;5020975;28;20735;-79
2023/08/01 12:33:52;;;;;;;2.20;0.80;;;29.20;78.90;;;;;;5031816;28;20691;-79
2023/08/01 12:36:19;;;;;;;4.10;0.90;;;28.90;78.50;;;;;;5022128;28;20206;-79
2023/08/01 12:38:44;;;;;;;3.90;1.10;;;28.60;77.80;;;;;;5033669;28;20687;-79
2023/08/01 12:41:10;;;;;;;4.50;1.30;;;28.30;78.90;;;;;;5024889;28;20608;-79
2023/08/01 12:43:36;;;;;;;4.87;1.13;;;27.90;81.00;;;;;;5026150;28;20198;-81
2023/08/01 12:46:02;;;;;;;2.97;0.90;;;27.30;82.30;;;;;;5045970;28;20292;-80
2023/08/01 12:48:28;;;;;;;3.00;1.30;;;26.80;84.00;;;;;;5038794;28;20623;-80
2023/08/01 12:50:55;;;;;;;3.10;1.30;;;26.40;87.40;;;;;;5027867;28;20189;-79